sensor_id;sensor_type;location;lat;lon;timestamp;pressure;altitude;pressure_sealevel;temperature;humidity
32761;BME280;19126;47.472;7.850;2023-02-14T00:01:30;98356.75;;;-2.41;68.38
32761;BME280;19126;47.472;7.850;2023-02-14T00:04:05;98352.63;;;-2.47;69.23
32761;BME280;19126;47.472;7.850;2023-02-14T00:06:38;98353.72;;;-2.54;69.87
32761;BME280;19126;47.472;7.850;2023-02-14T00:09:06;98347.75;;;-2.55;70.38
32761;BME280;19126;47.472;7.850;2023-02-14T00:11:41;98346.28;;;-2.62;69.75
32761;BME280;19126;47.472;7.850;2023-02-14T00:14:12;98344.53;;;-2.61;69.50
32761;BME280;19126;47.472;7.850;2023-02-14T00:17:00;98348.09;;;-2.66;70.82
32761;BME280;19126;47.472;7.850;2023-02-14T00:19:43;98340.69;;;-2.76;70.98
32761;BME280;19126;47.472;7.850;2023-02-14T00:22:16;98354.41;;;-2.76;70.94
32761;BME280;19126;47.472;7.850;2023-02-14T00:24:44;98355.22;;;-2.75;71.58
32761;BME280;19126;47.472;7.850;2023-02-14T00:27:20;98349.34;;;-2.79;70.61
32761;BME280;19126;47.472;7.850;2023-02-14T00:29:52;98353.56;;;-2.76;71.57
32761;BME280;19126;47.472;7.850;2023-02-14T00:32:29;98333.13;;;-2.81;70.95
32761;BME280;19126;47.472;7.850;2023-02-14T00:35:08;98331.69;;;-2.90;72.49
32761;BME280;19126;47.472;7.850;2023-02-14T00:37:41;98320.94;;;-3.03;73.55
32761;BME280;19126;47.472;7.850;2023-02-14T00:40:22;98335.50;;;-3.03;74.77
32761;BME280;19126;47.472;7.850;2023-02-14T00:43:12;98327.19;;;-3.12;73.76
32761;BME280;19126;47.472;7.850;2023-02-14T00:45:57;98346.88;;;-3.11;72.32
32761;BME280;19126;47.472;7.850;2023-02-14T00:48:46;98333.28;;;-3.14;70.83
32761;BME280;19126;47.472;7.850;2023-02-14T00:51:25;98323.91;;;-3.17;68.83
32761;BME280;19126;47.472;7.850;2023-02-14T00:57:50;98337.19;;;-3.02;67.43
32761;BME280;19126;47.472;7.850;2023-02-14T01:03:24;98321.25;;;-3.14;66.87
32761;BME280;19126;47.472;7.850;2023-02-14T01:04:14;98332.22;;;-3.07;66.49
32761;BME280;19126;47.472;7.850;2023-02-14T01:07:30;98337.25;;;-3.04;63.65
32761;BME280;19126;47.472;7.850;2023-02-14T01:10:37;98335.00;;;-3.15;63.90
32761;BME280;19126;47.472;7.850;2023-02-14T01:14:11;98331.72;;;-3.20;63.67
32761;BME280;19126;47.472;7.850;2023-02-14T01:24:11;98347.47;;;-3.02;59.79
32761;BME280;19126;47.472;7.850;2023-02-14T01:27:40;98331.44;;;-3.11;59.14
32761;BME280;19126;47.472;7.850;2023-02-14T01:31:03;98334.84;;;-2.82;57.45
32761;BME280;19126;47.472;7.850;2023-02-14T01:34:03;98352.03;;;-2.28;51.49
32761;BME280;19126;47.472;7.850;2023-02-14T01:36:53;98334.50;;;-2.17;44.92
32761;BME280;19126;47.472;7.850;2023-02-14T01:39:39;98330.59;;;-2.03;43.95
32761;BME280;19126;47.472;7.850;2023-02-14T01:42:17;98345.28;;;-1.56;38.58
32761;BME280;19126;47.472;7.850;2023-02-14T01:45:05;98339.41;;;-1.36;36.57
32761;BME280;19126;47.472;7.850;2023-02-14T01:47:38;98336.72;;;-1.09;33.85
32761;BME280;19126;47.472;7.850;2023-02-14T01:50:27;98345.34;;;-0.88;32.62
32761;BME280;19126;47.472;7.850;2023-02-14T01:52:58;98345.84;;;-0.78;33.07
32761;BME280;19126;47.472;7.850;2023-02-14T01:55:31;98343.72;;;-0.68;32.13
32761;BME280;19126;47.472;7.850;2023-02-14T01:58:04;98338.31;;;-0.62;32.57
32761;BME280;19126;47.472;7.850;2023-02-14T02:00:32;98334.00;;;-0.62;32.97
32761;BME280;19126;47.472;7.850;2023-02-14T02:03:17;98339.84;;;-0.56;32.70
32761;BME280;19126;47.472;7.850;2023-02-14T02:05:46;98340.47;;;-0.51;33.27
32761;BME280;19126;47.472;7.850;2023-02-14T02:08:14;98346.78;;;-0.58;33.24
32761;BME280;19126;47.472;7.850;2023-02-14T02:10:43;98340.25;;;-0.67;33.84
32761;BME280;19126;47.472;7.850;2023-02-14T02:13:18;98343.16;;;-0.75;34.24
32761;BME280;19126;47.472;7.850;2023-02-14T02:15:50;98340.44;;;-0.72;33.71
32761;BME280;19126;47.472;7.850;2023-02-14T02:18:23;98340.69;;;-0.78;32.89
32761;BME280;19126;47.472;7.850;2023-02-14T02:24:16;98329.31;;;-0.96;33.64
32761;BME280;19126;47.472;7.850;2023-02-14T02:30:20;98326.84;;;-1.45;38.00
32761;BME280;19126;47.472;7.850;2023-02-14T02:36:22;98316.91;;;-1.31;34.47
32761;BME280;19126;47.472;7.850;2023-02-14T02:39:04;98312.22;;;-1.21;32.85
32761;BME280;19126;47.472;7.850;2023-02-14T02:41:43;98310.59;;;-1.24;32.60
32761;BME280;19126;47.472;7.850;2023-02-14T02:44:16;98308.63;;;-1.17;31.28
32761;BME280;19126;47.472;7.850;2023-02-14T02:46:48;98309.63;;;-1.21;30.79
32761;BME280;19126;47.472;7.850;2023-02-14T02:49:31;98309.59;;;-1.20;30.22
32761;BME280;19126;47.472;7.850;2023-02-14T02:52:21;98304.72;;;-1.27;30.06
32761;BME280;19126;47.472;7.850;2023-02-14T02:55:13;98300.28;;;-1.24;29.57
32761;BME280;19126;47.472;7.850;2023-02-14T02:57:42;98303.69;;;-1.23;29.36
32761;BME280;19126;47.472;7.850;2023-02-14T03:00:12;98301.13;;;-1.23;29.34
32761;BME280;19126;47.472;7.850;2023-02-14T03:02:42;98305.34;;;-1.21;28.25
32761;BME280;19126;47.472;7.850;2023-02-14T03:05:29;98302.75;;;-1.21;28.38
32761;BME280;19126;47.472;7.850;2023-02-14T03:07:58;98306.16;;;-1.20;28.05
32761;BME280;19126;47.472;7.850;2023-02-14T03:10:27;98312.06;;;-1.16;28.30
32761;BME280;19126;47.472;7.850;2023-02-14T03:13:29;98302.56;;;-1.16;27.72
32761;BME280;19126;47.472;7.850;2023-02-14T03:16:28;98303.22;;;-1.11;27.26
32761;BME280;19126;47.472;7.850;2023-02-14T03:22:20;98306.53;;;-1.07;26.27
32761;BME280;19126;47.472;7.850;2023-02-14T03:24:58;98299.81;;;-1.11;26.42
32761;BME280;19126;47.472;7.850;2023-02-14T03:27:30;98307.69;;;-1.14;25.72
32761;BME280;19126;47.472;7.850;2023-02-14T03:30:06;98305.94;;;-1.14;25.99
32761;BME280;19126;47.472;7.850;2023-02-14T03:32:44;98305.94;;;-1.14;24.68
32761;BME280;19126;47.472;7.850;2023-02-14T03:35:16;98303.34;;;-1.14;24.87
32761;BME280;19126;47.472;7.850;2023-02-14T03:37:47;98304.19;;;-1.13;24.47
32761;BME280;19126;47.472;7.850;2023-02-14T03:40:19;98301.75;;;-1.16;24.69
32761;BME280;19126;47.472;7.850;2023-02-14T03:42:50;98305.03;;;-1.13;24.44
32761;BME280;19126;47.472;7.850;2023-02-14T03:45:23;98306.22;;;-1.22;24.44
32761;BME280;19126;47.472;7.850;2023-02-14T03:47:54;98305.56;;;-1.27;24.16
32761;BME280;19126;47.472;7.850;2023-02-14T03:50:22;98298.78;;;-1.29;24.69
32761;BME280;19126;47.472;7.850;2023-02-14T03:52:51;98307.28;;;-1.27;24.71
32761;BME280;19126;47.472;7.850;2023-02-14T03:55:23;98307.25;;;-1.26;24.31
32761;BME280;19126;47.472;7.850;2023-02-14T03:57:55;98309.81;;;-1.26;24.40
32761;BME280;19126;47.472;7.850;2023-02-14T04:00:24;98310.59;;;-1.24;24.32
32761;BME280;19126;47.472;7.850;2023-02-14T04:02:54;98311.44;;;-1.23;23.44
32761;BME280;19126;47.472;7.850;2023-02-14T04:05:25;98312.09;;;-1.18;23.18
32761;BME280;19126;47.472;7.850;2023-02-14T04:07:54;98319.00;;;-1.19;23.10
32761;BME280;19126;47.472;7.850;2023-02-14T04:10:23;98307.97;;;-1.22;23.10
32761;BME280;19126;47.472;7.850;2023-02-14T04:12:51;98310.50;;;-1.21;23.26
32761;BME280;19126;47.472;7.850;2023-02-14T04:15:18;98312.06;;;-1.16;22.60
32761;BME280;19126;47.472;7.850;2023-02-14T04:17:55;98326.31;;;-1.08;22.57
32761;BME280;19126;47.472;7.850;2023-02-14T04:20:39;98315.31;;;-1.11;22.67
32761;BME280;19126;47.472;7.850;2023-02-14T04:23:07;98321.25;;;-1.09;22.63
32761;BME280;19126;47.472;7.850;2023-02-14T04:25:35;98318.66;;;-1.09;22.80
32761;BME280;19126;47.472;7.850;2023-02-14T04:28:04;98316.75;;;-1.04;22.35
32761;BME280;19126;47.472;7.850;2023-02-14T04:30:31;98322.69;;;-1.02;22.61
32761;BME280;19126;47.472;7.850;2023-02-14T04:32:58;98315.00;;;-1.04;22.28
32761;BME280;19126;47.472;7.850;2023-02-14T04:35:25;98321.91;;;-1.04;22.24
32761;BME280;19126;47.472;7.850;2023-02-14T04:37:52;98323.50;;;-1.01;22.10
32761;BME280;19126;47.472;7.850;2023-02-14T04:40:20;98320.16;;;-1.04;21.89
32761;BME280;19126;47.472;7.850;2023-02-14T04:42:48;98316.78;;;-1.06;21.99
32761;BME280;19126;47.472;7.850;2023-02-14T04:45:15;98322.84;;;-1.07;21.94
32761;BME280;19126;47.472;7.850;2023-02-14T04:47:43;98316.97;;;-1.10;22.13
32761;BME280;19126;47.472;7.850;2023-02-14T04:50:10;98310.91;;;-1.09;21.54
32761;BME280;19126;47.472;7.850;2023-02-14T04:52:37;98312.59;;;-1.08;21.90
32761;BME280;19126;47.472;7.850;2023-02-14T04:55:05;98303.13;;;-1.08;21.80
32761;BME280;19126;47.472;7.850;2023-02-14T04:57:33;98306.53;;;-1.07;21.83
32761;BME280;19126;47.472;7.850;2023-02-14T05:00:05;98312.41;;;-1.04;21.56
32761;BME280;19126;47.472;7.850;2023-02-14T05:02:37;98315.00;;;-1.04;21.81
32761;BME280;19126;47.472;7.850;2023-02-14T05:05:11;98307.25;;;-1.04;22.06
32761;BME280;19126;47.472;7.850;2023-02-14T05:07:38;98295.31;;;-1.06;21.88
32761;BME280;19126;47.472;7.850;2023-02-14T05:10:10;98315.84;;;-1.03;21.83
32761;BME280;19126;47.472;7.850;2023-02-14T05:12:37;98305.34;;;-0.98;22.30
32761;BME280;19126;47.472;7.850;2023-02-14T05:15:07;98301.84;;;-0.97;21.50
32761;BME280;19126;47.472;7.850;2023-02-14T05:17:40;98309.66;;;-0.99;22.05
32761;BME280;19126;47.472;7.850;2023-02-14T05:20:08;98308.03;;;-1.01;22.07
32761;BME280;19126;47.472;7.850;2023-02-14T05:22:38;98316.53;;;-0.99;22.45
32761;BME280;19126;47.472;7.850;2023-02-14T05:25:06;98310.59;;;-1.01;21.99
32761;BME280;19126;47.472;7.850;2023-02-14T05:27:33;98317.53;;;-1.02;22.53
32761;BME280;19126;47.472;7.850;2023-02-14T05:30:03;98315.84;;;-1.03;22.74
32761;BME280;19126;47.472;7.850;2023-02-14T05:32:32;98310.59;;;-1.01;22.22
32761;BME280;19126;47.472;7.850;2023-02-14T05:35:03;98318.88;;;-0.93;22.16
32761;BME280;19126;47.472;7.850;2023-02-14T05:37:30;98320.81;;;-0.98;22.65
32761;BME280;19126;47.472;7.850;2023-02-14T05:39:57;98320.94;;;-1.01;23.01
32761;BME280;19126;47.472;7.850;2023-02-14T05:42:24;98317.53;;;-1.02;22.75
32761;BME280;19126;47.472;7.850;2023-02-14T05:44:54;98329.31;;;-0.96;23.50
32761;BME280;19126;47.472;7.850;2023-02-14T05:47:21;98332.66;;;-0.93;23.11
32761;BME280;19126;47.472;7.850;2023-02-14T05:49:54;98329.16;;;-0.92;23.91
32761;BME280;19126;47.472;7.850;2023-02-14T05:52:25;98332.69;;;-0.94;23.67
32761;BME280;19126;47.472;7.850;2023-02-14T05:54:52;98324.94;;;-0.94;24.54
32761;BME280;19126;47.472;7.850;2023-02-14T05:57:19;98332.75;;;-0.96;24.36
32761;BME280;19126;47.472;7.850;2023-02-14T05:59:47;98335.22;;;-0.93;24.78
32761;BME280;19126;47.472;7.850;2023-02-14T06:02:21;98331.88;;;-0.95;24.00
32761;BME280;19126;47.472;7.850;2023-02-14T06:04:48;98337.25;;;-1.01;24.91
32761;BME280;19126;47.472;7.850;2023-02-14T06:07:17;98347.63;;;-1.02;24.76
32761;BME280;19126;47.472;7.850;2023-02-14T06:09:44;98343.31;;;-1.02;24.75
32761;BME280;19126;47.472;7.850;2023-02-14T06:12:11;98347.75;;;-1.06;25.25
32761;BME280;19126;47.472;7.850;2023-02-14T06:14:38;98358.16;;;-1.09;25.59
32761;BME280;19126;47.472;7.850;2023-02-14T06:17:07;98353.91;;;-1.10;25.76
32761;BME280;19126;47.472;7.850;2023-02-14T06:19:35;98351.28;;;-1.08;26.07
32761;BME280;19126;47.472;7.850;2023-02-14T06:22:02;98353.00;;;-1.09;25.72
32761;BME280;19126;47.472;7.850;2023-02-14T06:24:31;98359.84;;;-1.08;26.22
32761;BME280;19126;47.472;7.850;2023-02-14T06:27:01;98359.25;;;-1.14;27.09
32761;BME280;19126;47.472;7.850;2023-02-14T06:29:28;98360.16;;;-1.15;27.53
32761;BME280;19126;47.472;7.850;2023-02-14T06:31:57;98362.72;;;-1.15;27.88
32761;BME280;19126;47.472;7.850;2023-02-14T06:34:30;98365.25;;;-1.14;28.03
32761;BME280;19126;47.472;7.850;2023-02-14T06:36:57;98363.78;;;-1.21;28.32
32761;BME280;19126;47.472;7.850;2023-02-14T06:39:24;98370.50;;;-1.17;28.95
32761;BME280;19126;47.472;7.850;2023-02-14T06:41:53;98365.34;;;-1.17;29.30
32761;BME280;19126;47.472;7.850;2023-02-14T06:44:20;98370.59;;;-1.19;29.61
32761;BME280;19126;47.472;7.850;2023-02-14T06:46:47;98361.22;;;-1.21;30.41
32761;BME280;19126;47.472;7.850;2023-02-14T06:49:18;98355.50;;;-1.29;30.72
32761;BME280;19126;47.472;7.850;2023-02-14T06:51:45;98364.00;;;-1.27;30.70
32761;BME280;19126;47.472;7.850;2023-02-14T06:54:13;98358.03;;;-1.28;30.76
32761;BME280;19126;47.472;7.850;2023-02-14T06:56:40;98363.91;;;-1.24;31.49
32761;BME280;19126;47.472;7.850;2023-02-14T06:59:08;98363.69;;;-1.18;31.81
32761;BME280;19126;47.472;7.850;2023-02-14T07:01:35;98361.06;;;-1.16;31.53
32761;BME280;19126;47.472;7.850;2023-02-14T07:04:06;98368.59;;;-1.12;31.91
32761;BME280;19126;47.472;7.850;2023-02-14T07:06:34;98362.66;;;-1.14;33.13
32761;BME280;19126;47.472;7.850;2023-02-14T07:09:02;98366.03;;;-1.12;32.85
32761;BME280;19126;47.472;7.850;2023-02-14T07:11:31;98366.81;;;-1.10;33.58
32761;BME280;19126;47.472;7.850;2023-02-14T07:13:59;98366.75;;;-1.08;33.36
32761;BME280;19126;47.472;7.850;2023-02-14T07:16:27;98364.22;;;-1.10;33.88
32761;BME280;19126;47.472;7.850;2023-02-14T07:18:54;98356.38;;;-1.07;33.72
32761;BME280;19126;47.472;7.850;2023-02-14T07:21:21;98363.28;;;-1.07;35.00
32761;BME280;19126;47.472;7.850;2023-02-14T07:23:49;98367.53;;;-1.06;34.97
32761;BME280;19126;47.472;7.850;2023-02-14T07:26:16;98357.94;;;-1.02;34.71
32761;BME280;19126;47.472;7.850;2023-02-14T07:28:44;98362.97;;;-0.99;34.32
32761;BME280;19126;47.472;7.850;2023-02-14T07:31:11;98362.16;;;-1.00;35.26
32761;BME280;19126;47.472;7.850;2023-02-14T07:33:39;98356.69;;;-0.92;35.31
32761;BME280;19126;47.472;7.850;2023-02-14T07:36:07;98350.63;;;-0.91;35.48
32761;BME280;19126;47.472;7.850;2023-02-14T07:38:37;98353.09;;;-0.88;35.67
32761;BME280;19126;47.472;7.850;2023-02-14T07:41:04;98352.19;;;-0.65;35.83
32761;BME280;19126;47.472;7.850;2023-02-14T07:43:33;98353.09;;;-0.66;36.97
32761;BME280;19126;47.472;7.850;2023-02-14T07:46:01;98348.34;;;-0.77;37.14
32761;BME280;19126;47.472;7.850;2023-02-14T07:48:29;98346.31;;;-0.68;37.63
32761;BME280;19126;47.472;7.850;2023-02-14T07:50:57;98349.75;;;-0.68;38.52
32761;BME280;19126;47.472;7.850;2023-02-14T07:53:24;98355.72;;;-0.67;38.65
32761;BME280;19126;47.472;7.850;2023-02-14T07:55:52;98348.00;;;-0.67;39.57
32761;BME280;19126;47.472;7.850;2023-02-14T07:58:19;98355.56;;;-0.63;40.23
32761;BME280;19126;47.472;7.850;2023-02-14T08:00:46;98352.91;;;-0.61;40.67
32761;BME280;19126;47.472;7.850;2023-02-14T08:03:14;98353.16;;;-0.67;41.16
32761;BME280;19126;47.472;7.850;2023-02-14T08:05:41;98354.59;;;-0.60;40.93
32761;BME280;19126;47.472;7.850;2023-02-14T08:08:10;98355.44;;;-0.60;41.17
32761;BME280;19126;47.472;7.850;2023-02-14T08:10:37;98345.81;;;-0.56;41.02
32761;BME280;19126;47.472;7.850;2023-02-14T08:13:05;98348.94;;;-0.48;40.45
32761;BME280;19126;47.472;7.850;2023-02-14T08:15:33;98353.03;;;-0.42;40.89
32761;BME280;19126;47.472;7.850;2023-02-14T08:18:18;98340.03;;;-0.40;42.05
32761;BME280;19126;47.472;7.850;2023-02-14T08:20:45;98342.44;;;-0.36;42.47
32761;BME280;19126;47.472;7.850;2023-02-14T08:23:15;98340.38;;;-0.27;43.31
32761;BME280;19126;47.472;7.850;2023-02-14T08:25:42;98340.91;;;-0.19;44.17
32761;BME280;19126;47.472;7.850;2023-02-14T08:28:09;98334.31;;;-0.06;44.64
32761;BME280;19126;47.472;7.850;2023-02-14T08:30:38;98337.41;;;0.03;46.41
32761;BME280;19126;47.472;7.850;2023-02-14T08:33:05;98335.56;;;0.06;49.15
32761;BME280;19126;47.472;7.850;2023-02-14T08:35:32;98328.50;;;0.10;51.77
32761;BME280;19126;47.472;7.850;2023-02-14T08:38:00;98332.72;;;0.12;55.03
32761;BME280;19126;47.472;7.850;2023-02-14T08:40:28;98326.56;;;0.15;58.88
32761;BME280;19126;47.472;7.850;2023-02-14T08:42:55;98323.84;;;0.18;60.80
32761;BME280;19126;47.472;7.850;2023-02-14T08:45:23;98324.41;;;0.25;61.97
32761;BME280;19126;47.472;7.850;2023-02-14T08:47:50;98333.59;;;0.32;64.33
32761;BME280;19126;47.472;7.850;2023-02-14T08:50:17;98330.47;;;0.45;65.89
32761;BME280;19126;47.472;7.850;2023-02-14T08:52:44;98329.56;;;0.46;69.83
32761;BME280;19126;47.472;7.850;2023-02-14T08:55:12;98319.75;;;0.52;71.62
32761;BME280;19126;47.472;7.850;2023-02-14T08:57:40;98324.88;;;0.73;71.67
32761;BME280;19126;47.472;7.850;2023-02-14T09:00:11;98309.56;;;0.68;74.70
32761;BME280;19126;47.472;7.850;2023-02-14T09:02:48;98322.56;;;0.86;77.85
32761;BME280;19126;47.472;7.850;2023-02-14T09:05:15;98321.84;;;1.01;79.43
32761;BME280;19126;47.472;7.850;2023-02-14T09:07:43;98325.59;;;1.13;82.55
32761;BME280;19126;47.472;7.850;2023-02-14T09:10:12;98324.66;;;1.34;84.78
32761;BME280;19126;47.472;7.850;2023-02-14T09:12:41;98319.75;;;1.46;88.04
32761;BME280;19126;47.472;7.850;2023-02-14T09:15:09;98316.31;;;1.64;91.18
32761;BME280;19126;47.472;7.850;2023-02-14T09:17:43;98320.50;;;2.01;92.00
32761;BME280;19126;47.472;7.850;2023-02-14T09:20:13;98314.28;;;2.22;94.79
32761;BME280;19126;47.472;7.850;2023-02-14T09:22:40;98315.56;;;2.30;100.00
32761;BME280;19126;47.472;7.850;2023-02-14T09:25:08;98311.84;;;2.52;100.00
32761;BME280;19126;47.472;7.850;2023-02-14T09:27:35;98312.16;;;2.46;100.00
32761;BME280;19126;47.472;7.850;2023-02-14T09:30:08;98323.31;;;2.48;100.00
32761;BME280;19126;47.472;7.850;2023-02-14T09:32:37;98317.06;;;2.68;100.00
32761;BME280;19126;47.472;7.850;2023-02-14T09:35:07;98312.78;;;2.83;100.00
32761;BME280;19126;47.472;7.850;2023-02-14T09:37:34;98318.66;;;3.03;100.00
32761;BME280;19126;47.472;7.850;2023-02-14T09:40:19;98313.06;;;3.11;100.00
32761;BME280;19126;47.472;7.850;2023-02-14T09:43:05;98309.69;;;3.08;100.00
32761;BME280;19126;47.472;7.850;2023-02-14T09:45:53;98309.81;;;3.68;100.00
32761;BME280;19126;47.472;7.850;2023-02-14T09:48:23;98307.97;;;4.30;100.00
32761;BME280;19126;47.472;7.850;2023-02-14T09:50:54;98305.66;;;4.39;100.00
32761;BME280;19126;47.472;7.850;2023-02-14T09:53:24;98301.00;;;4.30;100.00
32761;BME280;19126;47.472;7.850;2023-02-14T09:55:55;98308.34;;;4.52;100.00
32761;BME280;19126;47.472;7.850;2023-02-14T09:58:29;98309.63;;;4.45;100.00
32761;BME280;19126;47.472;7.850;2023-02-14T10:01:02;98300.44;;;4.68;100.00
32761;BME280;19126;47.472;7.850;2023-02-14T10:03:50;98302.56;;;4.62;100.00
32761;BME280;19126;47.472;7.850;2023-02-14T10:06:35;98310.53;;;4.73;100.00
32761;BME280;19126;47.472;7.850;2023-02-14T10:09:09;98298.41;;;4.59;100.00
32761;BME280;19126;47.472;7.850;2023-02-14T10:11:41;98304.53;;;5.00;100.00
32761;BME280;19126;47.472;7.850;2023-02-14T10:14:10;98307.69;;;4.63;100.00
32761;BME280;19126;47.472;7.850;2023-02-14T10:16:45;98306.78;;;4.92;100.00
32761;BME280;19126;47.472;7.850;2023-02-14T10:19:17;98305.69;;;4.81;100.00
32761;BME280;19126;47.472;7.850;2023-02-14T10:21:49;98298.59;;;4.98;100.00
32761;BME280;19126;47.472;7.850;2023-02-14T10:24:20;98295.94;;;5.12;100.00
32761;BME280;19126;47.472;7.850;2023-02-14T10:26:49;98301.53;;;5.06;100.00
32761;BME280;19126;47.472;7.850;2023-02-14T10:29:17;98298.66;;;4.69;100.00
32761;BME280;19126;47.472;7.850;2023-02-14T10:31:49;98289.16;;;4.68;100.00
32761;BME280;19126;47.472;7.850;2023-02-14T10:34:23;98293.97;;;4.89;100.00
32761;BME280;19126;47.472;7.850;2023-02-14T10:37:03;98294.72;;;4.76;100.00
32761;BME280;19126;47.472;7.850;2023-02-14T10:39:41;98283.78;;;4.57;100.00
32761;BME280;19126;47.472;7.850;2023-02-14T10:42:15;98288.63;;;4.48;100.00
32761;BME280;19126;47.472;7.850;2023-02-14T10:44:46;98275.44;;;4.51;100.00
32761;BME280;19126;47.472;7.850;2023-02-14T10:47:26;98272.22;;;4.75;100.00
32761;BME280;19126;47.472;7.850;2023-02-14T10:50:05;98274.75;;;4.77;100.00
32761;BME280;19126;47.472;7.850;2023-02-14T10:52:38;98270.44;;;4.90;100.00
32761;BME280;19126;47.472;7.850;2023-02-14T10:55:11;98268.53;;;5.07;100.00
32761;BME280;19126;47.472;7.850;2023-02-14T10:57:41;98269.44;;;4.78;100.00
32761;BME280;19126;47.472;7.850;2023-02-14T11:00:18;98259.03;;;5.06;100.00
32761;BME280;19126;47.472;7.850;2023-02-14T11:02:55;98248.84;;;5.16;100.00
32761;BME280;19126;47.472;7.850;2023-02-14T11:05:26;98248.38;;;5.23;100.00
32761;BME280;19126;47.472;7.850;2023-02-14T11:07:54;98238.28;;;5.32;100.00
32761;BME280;19126;47.472;7.850;2023-02-14T11:10:25;98243.75;;;5.54;100.00
32761;BME280;19126;47.472;7.850;2023-02-14T11:12:54;98235.72;;;5.45;100.00
32761;BME280;19126;47.472;7.850;2023-02-14T11:15:24;98237.66;;;5.41;100.00
32761;BME280;19126;47.472;7.850;2023-02-14T11:18:16;98231.63;;;5.40;100.00
32761;BME280;19126;47.472;7.850;2023-02-14T11:20:59;98222.16;;;5.52;100.00
32761;BME280;19126;47.472;7.850;2023-02-14T11:23:32;98226.88;;;5.60;100.00
32761;BME280;19126;47.472;7.850;2023-02-14T11:26:03;98220.28;;;5.54;100.00
32761;BME280;19126;47.472;7.850;2023-02-14T11:28:31;98214.13;;;5.55;100.00
32761;BME280;19126;47.472;7.850;2023-02-14T11:31:00;98221.00;;;5.43;100.00
32761;BME280;19126;47.472;7.850;2023-02-14T11:33:36;98217.16;;;5.09;100.00
32761;BME280;19126;47.472;7.850;2023-02-14T11:36:08;98208.16;;;5.27;100.00
32761;BME280;19126;47.472;7.850;2023-02-14T11:38:38;98200.47;;;5.52;100.00
32761;BME280;19126;47.472;7.850;2023-02-14T11:41:07;98195.47;;;5.62;100.00
32761;BME280;19126;47.472;7.850;2023-02-14T11:43:41;98198.09;;;5.75;100.00
32761;BME280;19126;47.472;7.850;2023-02-14T11:46:14;98191.41;;;5.70;100.00
32761;BME280;19126;47.472;7.850;2023-02-14T11:49:04;98189.44;;;5.61;100.00
32761;BME280;19126;47.472;7.850;2023-02-14T11:51:36;98190.16;;;5.89;100.00
32761;BME280;19126;47.472;7.850;2023-02-14T11:54:05;98180.03;;;6.10;100.00
32761;BME280;19126;47.472;7.850;2023-02-14T11:56:47;98183.44;;;6.24;100.00
32761;BME280;19126;47.472;7.850;2023-02-14T11:59:27;98174.59;;;6.13;100.00
32761;BME280;19126;47.472;7.850;2023-02-14T12:22:11;98158.41;;;6.58;100.00
32761;BME280;19126;47.472;7.850;2023-02-14T12:24:44;98137.19;;;6.63;100.00
32761;BME280;19126;47.472;7.850;2023-02-14T12:27:18;98152.63;;;6.66;99.74
32761;BME280;19126;47.472;7.850;2023-02-14T12:29:49;98145.03;;;6.63;100.00
32761;BME280;19126;47.472;7.850;2023-02-14T15:53:39;97998.63;;;7.23;100.00
32761;BME280;19126;47.472;7.850;2023-02-14T16:40:58;98002.22;;;4.90;100.00
32761;BME280;19126;47.472;7.850;2023-02-14T16:43:25;98000.13;;;4.82;100.00
32761;BME280;19126;47.472;7.850;2023-02-14T16:45:53;97999.81;;;4.74;100.00
32761;BME280;19126;47.472;7.850;2023-02-14T16:48:20;97996.81;;;4.67;100.00
32761;BME280;19126;47.472;7.850;2023-02-14T16:50:47;97994.72;;;4.60;100.00
32761;BME280;19126;47.472;7.850;2023-02-14T16:53:22;98001.97;;;4.54;100.00
32761;BME280;19126;47.472;7.850;2023-02-14T16:55:53;97998.44;;;4.43;100.00
32761;BME280;19126;47.472;7.850;2023-02-14T16:58:26;98006.94;;;4.32;100.00
32761;BME280;19126;47.472;7.850;2023-02-14T17:00:54;98004.59;;;4.14;100.00
32761;BME280;19126;47.472;7.850;2023-02-14T17:03:22;98008.91;;;4.01;100.00
32761;BME280;19126;47.472;7.850;2023-02-14T17:05:49;98010.44;;;3.90;100.00
32761;BME280;19126;47.472;7.850;2023-02-14T17:08:16;98001.22;;;3.72;100.00
32761;BME280;19126;47.472;7.850;2023-02-14T17:10:44;98015.13;;;3.71;100.00
32761;BME280;19126;47.472;7.850;2023-02-14T17:13:14;98015.25;;;3.55;100.00
32761;BME280;19126;47.472;7.850;2023-02-14T17:15:44;98025.09;;;3.35;100.00
32761;BME280;19126;47.472;7.850;2023-02-14T17:18:13;98025.03;;;3.22;100.00
32761;BME280;19126;47.472;7.850;2023-02-14T17:20:41;98027.69;;;3.06;100.00
32761;BME280;19126;47.472;7.850;2023-02-14T17:23:08;98033.53;;;2.95;100.00
32761;BME280;19126;47.472;7.850;2023-02-14T17:25:35;98028.72;;;2.89;100.00
32761;BME280;19126;47.472;7.850;2023-02-14T17:28:03;98030.31;;;2.61;100.00
32761;BME280;19126;47.472;7.850;2023-02-14T17:30:31;98034.19;;;2.54;100.00
32761;BME280;19126;47.472;7.850;2023-02-14T17:32:59;98032.88;;;2.46;100.00
32761;BME280;19126;47.472;7.850;2023-02-14T17:35:26;98044.63;;;2.22;100.00
32761;BME280;19126;47.472;7.850;2023-02-14T17:37:54;98042.31;;;2.17;100.00
32761;BME280;19126;47.472;7.850;2023-02-14T17:40:22;98036.38;;;1.99;100.00
32761;BME280;19126;47.472;7.850;2023-02-14T17:42:49;98036.13;;;1.87;100.00
32761;BME280;19126;47.472;7.850;2023-02-14T17:45:16;98045.16;;;1.80;100.00
32761;BME280;19126;47.472;7.850;2023-02-14T17:47:46;98045.25;;;1.63;100.00
32761;BME280;19126;47.472;7.850;2023-02-14T17:50:15;98045.66;;;1.55;100.00
32761;BME280;19126;47.472;7.850;2023-02-14T17:52:43;98043.16;;;1.37;100.00
32761;BME280;19126;47.472;7.850;2023-02-14T17:55:10;98040.09;;;1.29;100.00
32761;BME280;19126;47.472;7.850;2023-02-14T17:57:40;98033.66;;;1.20;100.00
32761;BME280;19126;47.472;7.850;2023-02-14T18:00:09;98038.34;;;0.96;100.00
32761;BME280;19126;47.472;7.850;2023-02-14T18:02:49;98034.81;;;0.81;100.00
32761;BME280;19126;47.472;7.850;2023-02-14T18:05:19;98034.97;;;0.78;100.00
32761;BME280;19126;47.472;7.850;2023-02-14T18:07:46;98032.59;;;0.73;100.00
32761;BME280;19126;47.472;7.850;2023-02-14T18:10:13;98021.94;;;0.62;100.00
32761;BME280;19126;47.472;7.850;2023-02-14T18:12:41;98027.38;;;0.57;100.00
32761;BME280;19126;47.472;7.850;2023-02-14T18:15:11;98031.63;;;0.40;100.00
32761;BME280;19126;47.472;7.850;2023-02-14T18:17:46;98030.31;;;0.32;100.00
32761;BME280;19126;47.472;7.850;2023-02-14T18:20:14;98027.34;;;0.22;100.00